createdAt,value
2018-09-15T00:02:06.266Z,61.15
2018-09-15T00:04:34.999Z,60.03
2018-09-15T00:07:04.023Z,59.99
2018-09-15T00:09:32.738Z,59.70
2018-09-15T00:12:02.050Z,59.54
2018-09-15T00:14:30.712Z,59.22
2018-09-15T00:16:59.471Z,58.93
2018-09-15T00:19:28.440Z,58.95
2018-09-15T00:21:57.096Z,58.58
2018-09-15T00:24:25.879Z,59.17
2018-09-15T00:26:54.997Z,59.47
2018-09-15T00:29:23.675Z,59.52
2018-09-15T00:31:52.324Z,59.54
2018-09-15T00:34:21.072Z,60.01
2018-09-15T00:36:49.753Z,59.69
2018-09-15T00:39:18.376Z,59.98
2018-09-15T00:41:47.076Z,59.69
2018-09-15T00:44:15.900Z,59.78
2018-09-15T00:46:44.557Z,60.07
2018-09-15T00:49:13.721Z,60.28
2018-09-15T00:51:42.615Z,60.56
2018-09-15T00:54:11.319Z,60.54
2018-09-15T00:56:40.002Z,60.91
2018-09-15T00:59:13.729Z,60.64
2018-09-15T01:01:42.590Z,61.01
2018-09-15T01:04:11.294Z,60.92
2018-09-15T01:06:40.982Z,61.10
2018-09-15T01:09:10.392Z,61.86
2018-09-15T01:11:38.996Z,62.78
2018-09-15T01:14:07.877Z,62.37
2018-09-15T01:16:36.431Z,62.74
2018-09-15T01:19:05.308Z,62.93
2018-09-15T01:21:34.834Z,63.11
2018-09-15T01:24:03.536Z,62.83
2018-09-15T01:26:32.235Z,63.49
2018-09-15T01:29:00.843Z,63.90
2018-09-15T01:31:29.679Z,64.01
2018-09-15T01:33:58.313Z,64.28
2018-09-15T01:36:27.495Z,64.45
2018-09-15T01:38:56.159Z,63.83
2018-09-15T01:41:24.784Z,63.74
2018-09-15T01:43:54.386Z,63.25
2018-09-15T01:46:23.107Z,62.99
2018-09-15T01:48:51.832Z,62.26
2018-09-15T01:51:20.517Z,62.40
2018-09-15T01:53:49.118Z,61.89
2018-09-15T01:56:19.008Z,61.97
2018-09-15T01:58:48.070Z,61.64
2018-09-15T02:01:16.717Z,61.37
2018-09-15T02:03:45.445Z,61.53
2018-09-15T02:06:14.139Z,61.47
2018-09-15T02:08:44.301Z,61.58
2018-09-15T02:11:13.355Z,61.33
2018-09-15T02:13:42.852Z,61.52
2018-09-15T02:16:11.562Z,61.23
2018-09-15T02:18:40.364Z,60.80
2018-09-15T02:21:10.756Z,60.66
2018-09-15T02:23:39.679Z,60.85
2018-09-15T02:26:09.014Z,60.44
2018-09-15T02:28:37.915Z,60.58
2018-09-15T02:31:07.170Z,60.60
2018-09-15T02:33:35.864Z,60.75
2018-09-15T02:36:04.760Z,60.79
2018-09-15T02:38:33.366Z,60.10
2018-09-15T02:41:02.722Z,59.97
2018-09-15T02:43:31.328Z,60.40
2018-09-15T02:46:00.486Z,60.38
2018-09-15T02:48:29.448Z,60.56
2018-09-15T02:50:58.683Z,60.58
2018-09-15T02:53:28.479Z,60.18
2018-09-15T02:55:57.289Z,60.22
2018-09-15T02:58:25.967Z,60.25
2018-09-15T03:00:54.767Z,60.00
2018-09-15T03:03:23.680Z,60.96
2018-09-15T03:05:52.358Z,60.91
2018-09-15T03:08:21.152Z,62.00
2018-09-15T03:10:49.879Z,61.59
2018-09-15T03:13:18.516Z,62.23
2018-09-15T03:15:47.192Z,62.25
2018-09-15T03:18:15.965Z,61.85
2018-09-15T03:20:44.637Z,62.43
2018-09-15T03:23:13.374Z,62.43
2018-09-15T03:25:42.099Z,62.41
2018-09-15T03:28:11.655Z,62.85
2018-09-15T03:30:40.416Z,62.93
2018-09-15T03:33:09.107Z,63.09
2018-09-15T03:35:37.847Z,63.42
2018-09-15T03:38:06.705Z,63.53
2018-09-15T03:40:35.417Z,63.25
2018-09-15T03:43:04.326Z,63.73
2018-09-15T03:45:33.058Z,64.17
2018-09-15T03:48:01.854Z,64.15
2018-09-15T03:50:30.827Z,64.22
2018-09-15T03:52:59.528Z,64.34
2018-09-15T03:55:28.746Z,64.96
2018-09-15T03:57:57.304Z,65.05
2018-09-15T04:00:25.933Z,65.77
2018-09-15T04:02:54.450Z,66.40
2018-09-15T04:05:23.222Z,65.86
2018-09-15T04:07:51.797Z,66.20
2018-09-15T04:10:21.019Z,66.70
2018-09-15T04:12:49.709Z,66.72
2018-09-15T04:15:18.413Z,67.01
2018-09-15T04:17:47.072Z,67.50
2018-09-15T04:20:15.833Z,67.35
2018-09-15T04:22:44.482Z,67.38
2018-09-15T04:25:13.199Z,67.68
2018-09-15T04:27:41.804Z,67.91
2018-09-15T04:30:10.673Z,67.73
2018-09-15T04:32:40.226Z,67.57
2018-09-15T04:35:08.884Z,67.37
2018-09-15T04:37:37.690Z,67.10
2018-09-15T04:40:07.643Z,67.14
2018-09-15T04:42:36.377Z,67.29
2018-09-15T04:45:05.165Z,67.36
2018-09-15T04:47:34.312Z,67.47
2018-09-15T04:50:03.181Z,67.45
2018-09-15T04:52:32.044Z,68.02
2018-09-15T04:55:00.961Z,68.21
2018-09-15T04:57:30.182Z,68.72
2018-09-15T04:59:58.831Z,68.74
2018-09-15T05:02:27.599Z,68.30
2018-09-15T05:04:57.330Z,68.64
2018-09-15T05:07:27.059Z,68.94
2018-09-15T05:09:56.443Z,68.73
2018-09-15T05:12:25.208Z,68.78
2018-09-15T05:14:54.136Z,68.91
2018-09-15T05:17:22.829Z,68.41
2018-09-15T05:19:51.513Z,68.37
2018-09-15T05:22:20.436Z,68.04
2018-09-15T05:24:50.183Z,68.19
2018-09-15T05:27:18.985Z,68.33
2018-09-15T05:29:47.625Z,68.43
2018-09-15T05:32:16.374Z,68.19
2018-09-15T05:34:45.898Z,68.24
2018-09-15T05:37:14.546Z,68.00
2018-09-15T05:39:43.874Z,67.78
2018-09-15T05:42:12.609Z,67.93
2018-09-15T05:44:41.361Z,67.95
2018-09-15T05:47:17.005Z,67.54
2018-09-15T05:49:45.780Z,67.74
2018-09-15T05:52:14.399Z,67.08
2018-09-15T05:54:43.072Z,67.52
2018-09-15T05:57:11.778Z,67.30
2018-09-15T05:59:40.676Z,66.97
2018-09-15T06:02:09.747Z,67.28
2018-09-15T06:04:38.541Z,67.32
2018-09-15T06:07:07.164Z,67.23
2018-09-15T06:09:35.925Z,67.16
2018-09-15T06:12:05.566Z,66.88
2018-09-15T06:14:34.675Z,67.08
2018-09-15T06:17:03.835Z,66.94
2018-09-15T06:19:32.862Z,67.34
2018-09-15T06:22:04.089Z,67.23
2018-09-15T06:24:32.748Z,67.08
2018-09-15T06:27:01.430Z,66.92
2018-09-15T06:29:30.505Z,67.00
2018-09-15T06:32:00.795Z,66.98
2018-09-15T06:34:29.579Z,66.66
2018-09-15T06:36:58.951Z,66.28
2018-09-15T06:39:28.729Z,67.13
2018-09-15T06:41:58.632Z,66.54
2018-09-15T06:44:28.406Z,66.47
2018-09-15T06:46:57.133Z,66.40
2018-09-15T06:49:28.044Z,65.98
2018-09-15T06:51:58.950Z,66.24
2018-09-15T06:54:29.325Z,66.15
2018-09-15T06:56:58.171Z,65.70
2018-09-15T06:59:26.904Z,66.70
2018-09-15T07:01:55.636Z,65.43
2018-09-15T07:04:25.397Z,65.68
2018-09-15T07:06:54.980Z,66.02
2018-09-15T07:09:25.137Z,66.36
2018-09-15T07:11:53.934Z,66.17
2018-09-15T07:14:23.424Z,66.20
2018-09-15T07:16:53.606Z,65.41
2018-09-15T07:19:23.254Z,65.31
2018-09-15T07:21:52.351Z,64.92
2018-09-15T07:24:20.900Z,64.79
2018-09-15T07:26:52.265Z,64.88
2018-09-15T07:29:21.463Z,65.38
2018-09-15T07:31:50.808Z,64.80
2018-09-15T07:34:19.638Z,65.16
2018-09-15T07:36:49.424Z,64.51
2018-09-15T07:39:18.133Z,64.75
2018-09-15T07:41:46.855Z,64.44
2018-09-15T07:44:15.486Z,64.88
2018-09-15T07:46:44.376Z,64.77
2018-09-15T07:49:13.081Z,65.15
2018-09-15T07:51:41.827Z,65.33
2018-09-15T07:54:12.167Z,65.27
2018-09-15T07:56:42.097Z,65.42
2018-09-15T07:59:13.347Z,65.40
2018-09-15T08:01:42.034Z,65.30
2018-09-15T08:04:10.723Z,65.79
2018-09-15T08:06:39.701Z,65.54
2018-09-15T08:09:08.640Z,65.75
2018-09-15T08:11:37.831Z,65.57
2018-09-15T08:14:06.632Z,65.49
2018-09-15T08:16:36.162Z,64.97
2018-09-15T08:19:04.950Z,64.83
2018-09-15T08:21:33.770Z,64.45
2018-09-15T08:24:02.399Z,65.04
2018-09-15T08:26:31.053Z,64.12
2018-09-15T08:29:01.303Z,64.56
2018-09-15T08:31:30.038Z,64.15
2018-09-15T08:33:58.746Z,63.66
2018-09-15T08:36:27.399Z,63.63
2018-09-15T08:38:56.158Z,63.63
2018-09-15T08:41:24.818Z,63.33
2018-09-15T08:43:53.614Z,63.72
2018-09-15T08:46:22.851Z,62.73
2018-09-15T08:48:51.558Z,62.72
2018-09-15T08:51:20.225Z,62.75
2018-09-15T08:53:49.068Z,62.74
2018-09-15T08:56:17.807Z,63.00
2018-09-15T08:58:46.408Z,63.09
2018-09-15T09:01:15.442Z,63.00
2018-09-15T09:03:44.233Z,62.33
2018-09-15T09:06:12.994Z,62.44
2018-09-15T09:08:42.645Z,63.00
2018-09-15T09:11:12.150Z,62.26
2018-09-15T09:13:42.018Z,62.17
2018-09-15T09:16:10.691Z,61.84
2018-09-15T09:18:39.337Z,61.44
2018-09-15T09:21:08.550Z,60.94
2018-09-15T09:23:37.275Z,60.98
2018-09-15T09:26:06.142Z,61.13
2018-09-15T09:28:34.700Z,60.84
2018-09-15T09:31:14.208Z,60.29
2018-09-15T09:33:42.769Z,60.07
2018-09-15T09:36:11.679Z,60.17
2018-09-15T09:38:40.344Z,60.73
2018-09-15T09:41:09.343Z,60.25
2018-09-15T09:43:38.121Z,61.35
2018-09-15T09:46:06.893Z,60.18
2018-09-15T09:48:35.603Z,59.85
2018-09-15T09:51:05.146Z,60.97
2018-09-15T09:53:34.446Z,60.76
2018-09-15T09:56:03.597Z,60.37
2018-09-15T09:58:32.257Z,60.36
2018-09-15T10:01:06.806Z,60.81
2018-09-15T10:03:35.448Z,61.25
2018-09-15T10:06:04.079Z,60.66
2018-09-15T10:08:32.926Z,59.99
2018-09-15T10:11:03.358Z,59.38
2018-09-15T10:13:32.047Z,59.02
2018-09-15T10:16:00.734Z,58.70
2018-09-15T10:18:29.518Z,57.73
2018-09-15T10:20:58.858Z,57.80
2018-09-15T10:23:27.610Z,57.15
2018-09-15T10:25:56.244Z,56.65
2018-09-15T10:28:25.018Z,55.58
2018-09-15T10:30:54.393Z,55.80
2018-09-15T10:33:24.088Z,56.13
2018-09-15T10:35:52.943Z,56.38
2018-09-15T10:38:23.686Z,55.75
2018-09-15T10:40:53.180Z,56.34
2018-09-15T10:43:23.038Z,56.23
2018-09-15T10:45:51.939Z,58.53
2018-09-15T10:48:21.168Z,60.39
2018-09-15T10:50:49.880Z,62.76
2018-09-15T10:53:20.222Z,64.82
2018-09-15T10:55:48.900Z,65.70
2018-09-15T10:58:17.881Z,67.09
2018-09-15T11:00:46.650Z,67.78
2018-09-15T11:03:15.252Z,68.42
2018-09-15T11:05:43.920Z,68.78
2018-09-15T11:08:12.598Z,68.41
2018-09-15T11:10:41.305Z,68.11
2018-09-15T11:13:10.031Z,68.80
2018-09-15T11:15:38.709Z,68.14
2018-09-15T11:18:08.056Z,68.63
2018-09-15T11:20:37.137Z,67.74
2018-09-15T11:23:06.317Z,67.50
2018-09-15T11:25:35.355Z,66.94
2018-09-15T11:28:04.398Z,67.26
2018-09-15T11:30:34.009Z,65.82
2018-09-15T11:33:04.166Z,66.16
2018-09-15T11:35:33.881Z,65.52
2018-09-15T11:38:11.215Z,64.04
2018-09-15T11:40:41.129Z,63.24
2018-09-15T11:43:11.051Z,62.18
2018-09-15T11:45:50.440Z,62.34
2018-09-15T11:48:19.103Z,61.55
2018-09-15T11:50:48.102Z,61.72
2018-09-15T11:53:16.840Z,60.57
2018-09-15T11:55:45.915Z,60.96
2018-09-15T11:58:14.663Z,59.70
2018-09-15T12:00:48.856Z,59.72
2018-09-15T12:03:17.575Z,59.17
2018-09-15T12:05:46.274Z,59.05
2018-09-15T12:08:14.962Z,58.98
2018-09-15T12:10:44.028Z,58.24
2018-09-15T12:13:12.904Z,59.25
2018-09-15T12:15:41.547Z,59.44
2018-09-15T12:18:10.299Z,59.36
2018-09-15T12:20:39.106Z,60.23
2018-09-15T12:23:07.906Z,60.81
2018-09-15T12:25:37.736Z,60.75
2018-09-15T12:28:06.613Z,61.11
2018-09-15T12:30:35.796Z,60.48
2018-09-15T12:33:04.552Z,59.82
2018-09-15T12:35:33.366Z,59.78
2018-09-15T12:38:02.306Z,58.87
2018-09-15T12:40:31.187Z,58.85
2018-09-15T12:42:59.823Z,59.65
2018-09-15T12:45:29.179Z,58.96
2018-09-15T12:47:57.902Z,58.72
2018-09-15T12:50:27.989Z,58.67
2018-09-15T12:52:56.924Z,58.04
2018-09-15T12:55:25.639Z,57.40
2018-09-15T12:57:54.480Z,57.99
2018-09-15T13:00:23.304Z,58.13
2018-09-15T13:02:52.198Z,58.14
2018-09-15T13:05:21.028Z,58.12
2018-09-15T13:07:50.483Z,57.89
2018-09-15T13:10:19.286Z,57.82
2018-09-15T13:12:49.452Z,57.42
2018-09-15T13:15:18.331Z,58.22
2018-09-15T13:17:47.165Z,57.80
2018-09-15T13:20:15.804Z,57.29
2018-09-15T13:22:44.942Z,56.71
2018-09-15T13:25:14.454Z,55.74
2018-09-15T13:27:43.187Z,55.66
2018-09-15T13:30:12.151Z,55.86
2018-09-15T13:32:40.873Z,55.35
2018-09-15T13:35:10.316Z,55.12
2018-09-15T13:37:38.900Z,55.20
2018-09-15T13:40:07.881Z,55.30
2018-09-15T13:42:36.588Z,54.26
2018-09-15T13:45:05.531Z,54.65
2018-09-15T13:47:34.290Z,52.81
2018-09-15T13:50:03.444Z,51.82
2018-09-15T13:52:32.146Z,50.65
2018-09-15T13:55:00.856Z,49.45
2018-09-15T13:57:29.537Z,48.97
2018-09-15T13:59:58.506Z,48.46
2018-09-15T14:02:27.272Z,49.23
2018-09-15T14:07:55.559Z,50.63
2018-09-15T14:10:25.066Z,51.29
2018-09-15T14:12:54.016Z,51.54
2018-09-15T14:15:22.831Z,51.72
2018-09-15T14:17:52.594Z,51.81
2018-09-15T14:20:21.439Z,52.47
2018-09-15T14:22:50.245Z,52.79
2018-09-15T14:25:18.834Z,53.51
2018-09-15T14:27:48.257Z,53.20
2018-09-15T14:30:16.927Z,54.07
2018-09-15T14:32:45.730Z,54.05
2018-09-15T14:35:14.482Z,53.94
2018-09-15T14:37:43.190Z,54.44
2018-09-15T14:40:11.915Z,54.69
2018-09-15T14:42:40.832Z,54.46
2018-09-15T14:45:09.721Z,53.96
2018-09-15T14:47:38.335Z,55.26
2018-09-15T14:50:07.412Z,55.44
2018-09-15T14:52:37.136Z,55.18
2018-09-15T14:55:06.215Z,54.90
2018-09-15T14:57:35.927Z,55.04
2018-09-15T15:00:05.186Z,55.04
2018-09-15T15:02:34.164Z,54.67
2018-09-15T15:05:02.905Z,54.10
2018-09-15T15:07:31.595Z,53.07
2018-09-15T15:10:00.838Z,53.28
2018-09-15T15:12:30.116Z,52.56
2018-09-15T15:14:58.785Z,52.14
2018-09-15T15:17:27.490Z,51.73
2018-09-15T15:19:57.363Z,51.33
2018-09-15T15:22:26.081Z,51.49
2018-09-15T15:24:54.916Z,51.22
2018-09-15T15:27:24.582Z,51.55
2018-09-15T15:29:54.036Z,51.17
2018-09-15T15:32:23.696Z,50.47
2018-09-15T15:34:52.461Z,50.79
2018-09-15T15:37:21.366Z,50.52
2018-09-15T15:39:50.165Z,49.90
2018-09-15T15:42:19.775Z,50.63
2018-09-15T15:44:49.733Z,50.03
2018-09-15T15:47:18.417Z,49.87
2018-09-15T15:49:47.878Z,49.93
2018-09-15T15:52:16.963Z,50.31
2018-09-15T15:54:46.074Z,50.71
2018-09-15T15:57:14.626Z,49.92
2018-09-15T15:59:43.345Z,49.99
2018-09-15T16:02:12.135Z,50.43
2018-09-15T16:04:40.729Z,51.18
2018-09-15T16:07:09.676Z,51.03
2018-09-15T16:09:38.507Z,50.99
2018-09-15T16:12:07.389Z,51.47
2018-09-15T16:14:36.916Z,51.43
2018-09-15T16:17:05.644Z,51.47
2018-09-15T16:19:34.436Z,51.69
2018-09-15T16:22:03.175Z,51.86
2018-09-15T16:24:31.832Z,51.81
2018-09-15T16:27:00.579Z,52.36
2018-09-15T16:29:29.634Z,52.55
2018-09-15T16:31:59.455Z,52.54
2018-09-15T16:34:28.581Z,52.44
2018-09-15T16:36:57.376Z,51.97
2018-09-15T16:39:25.962Z,52.61
2018-09-15T16:41:54.700Z,53.42
2018-09-15T16:44:23.913Z,52.36
2018-09-15T16:46:53.399Z,54.17
2018-09-15T16:49:22.050Z,55.21
2018-09-15T16:51:51.036Z,52.67
2018-09-15T16:54:19.704Z,53.55
2018-09-15T16:56:49.404Z,54.95
2018-09-15T16:59:18.249Z,52.18
2018-09-15T17:01:48.543Z,52.08
2018-09-15T17:04:18.350Z,51.80
2018-09-15T17:06:47.581Z,51.04
2018-09-15T17:09:17.135Z,52.23
2018-09-15T17:11:46.456Z,52.21
2018-09-15T17:14:15.352Z,52.35
2018-09-15T17:16:46.258Z,53.10
2018-09-15T17:19:14.799Z,52.21
2018-09-15T17:21:43.516Z,54.59
2018-09-15T17:24:12.182Z,53.25
2018-09-15T17:26:40.905Z,54.57
2018-09-15T17:29:11.435Z,53.47
2018-09-15T17:31:40.064Z,53.07
2018-09-15T17:34:09.808Z,53.99
2018-09-15T17:36:38.406Z,52.93
2018-09-15T17:39:09.756Z,53.70
2018-09-15T17:41:39.028Z,54.20
2018-09-15T17:44:08.691Z,53.85
2018-09-15T17:46:37.715Z,53.71
2018-09-15T17:49:06.646Z,54.49
2018-09-15T17:51:36.837Z,54.18
2018-09-15T17:54:06.128Z,53.95
2018-09-15T17:56:35.248Z,54.50
2018-09-15T17:59:05.413Z,54.31
2018-09-15T18:01:36.167Z,55.02
2018-09-15T18:04:05.743Z,54.88
2018-09-15T18:06:35.834Z,55.52
2018-09-15T18:09:06.539Z,55.22
2018-09-15T18:11:35.425Z,55.50
2018-09-15T18:14:04.845Z,56.06
2018-09-15T18:16:33.857Z,56.09
2018-09-15T18:19:05.798Z,56.33
2018-09-15T18:21:47.180Z,57.37
2018-09-15T18:24:16.786Z,57.18
2018-09-15T18:26:45.635Z,57.37
2018-09-15T18:29:14.534Z,58.57
2018-09-15T18:31:45.455Z,58.37
2018-09-15T18:34:14.219Z,58.81
2018-09-15T18:36:43.796Z,59.46
2018-09-15T18:39:12.527Z,59.45
2018-09-15T18:41:41.448Z,60.36
2018-09-15T18:44:10.573Z,61.05
2018-09-15T18:46:40.180Z,61.41
2018-09-15T18:49:09.035Z,61.40
2018-09-15T18:51:38.229Z,61.80
2018-09-15T18:54:07.245Z,62.23
2018-09-15T18:56:38.015Z,62.36
2018-09-15T18:59:07.042Z,62.82
2018-09-15T19:01:38.100Z,62.78
2018-09-15T19:04:07.066Z,62.54
2018-09-15T19:06:36.652Z,62.98
2018-09-15T19:09:08.518Z,63.40
2018-09-15T19:11:38.916Z,63.22
2018-09-15T19:14:07.710Z,63.77
2018-09-15T19:16:36.508Z,64.23
2018-09-15T19:19:06.204Z,63.55
2018-09-15T19:21:36.477Z,63.20
2018-09-15T19:24:05.184Z,63.93
2018-09-15T19:26:35.404Z,63.93
2018-09-15T19:29:04.800Z,64.72
2018-09-15T19:31:33.650Z,64.16
2018-09-15T19:34:03.196Z,63.74
2018-09-15T19:36:31.910Z,64.59
2018-09-15T19:39:00.640Z,64.67
2018-09-15T19:41:29.786Z,63.87
2018-09-15T19:43:59.149Z,63.83
2018-09-15T19:46:29.023Z,64.87
2018-09-15T19:49:44.912Z,63.91
2018-09-15T19:52:13.549Z,64.03
2018-09-15T19:54:42.982Z,64.44
2018-09-15T19:57:11.764Z,65.03
2018-09-15T19:59:41.697Z,64.66
2018-09-15T20:02:12.462Z,65.59
2018-09-15T20:04:41.376Z,65.33
2018-09-15T20:08:16.560Z,66.07
2018-09-15T20:10:45.820Z,66.39
2018-09-15T20:13:15.375Z,66.41
2018-09-15T20:15:42.838Z,66.69
2018-09-15T20:18:11.681Z,67.22
2018-09-15T20:20:39.128Z,67.18
2018-09-15T20:23:08.461Z,66.89
2018-09-15T20:25:38.094Z,67.41
2018-09-15T20:28:07.965Z,68.04
2018-09-15T20:30:38.966Z,68.03
2018-09-15T20:33:08.854Z,68.23
2018-09-15T20:35:38.948Z,67.97
2018-09-15T20:38:07.645Z,68.34
2018-09-15T20:40:38.336Z,68.39
2018-09-15T20:43:07.954Z,68.67
2018-09-15T20:45:36.569Z,68.62
2018-09-15T20:48:05.364Z,69.02
2018-09-15T20:50:35.661Z,69.04
2018-09-15T20:53:04.304Z,69.03
2018-09-15T20:55:33.253Z,69.62
2018-09-15T20:58:02.035Z,69.65
2018-09-15T21:00:31.715Z,69.62
2018-09-15T21:03:00.602Z,69.41
2018-09-15T21:05:29.324Z,69.84
2018-09-15T21:07:58.025Z,69.39
2018-09-15T21:10:26.672Z,69.17
2018-09-15T21:12:56.485Z,69.56
2018-09-15T21:15:26.368Z,69.83
2018-09-15T21:17:55.231Z,69.67
2018-09-15T21:20:24.254Z,70.10
2018-09-15T21:22:53.212Z,69.77
2018-09-15T21:25:22.165Z,69.83
2018-09-15T21:27:51.121Z,70.03
2018-09-15T21:30:20.772Z,70.32
2018-09-15T21:32:50.408Z,70.00
2018-09-15T21:35:19.847Z,70.08
2018-09-15T21:37:49.657Z,70.12
2018-09-15T21:40:18.484Z,70.35
2018-09-15T21:42:48.940Z,70.27
2018-09-15T21:45:18.528Z,70.83
2018-09-15T21:47:48.150Z,70.16
2018-09-15T21:50:16.927Z,70.14
2018-09-15T21:52:47.401Z,70.31
2018-09-15T21:55:16.245Z,70.49
2018-09-15T21:57:47.056Z,70.20
2018-09-15T22:00:15.845Z,70.42
2018-09-15T22:02:44.732Z,70.48
2018-09-15T22:05:13.573Z,70.37
2018-09-15T22:07:42.374Z,70.49
2018-09-15T22:10:11.097Z,70.21
2018-09-15T22:12:40.875Z,70.43
2018-09-15T22:15:26.934Z,70.89
2018-09-15T22:17:57.420Z,71.20
2018-09-15T22:20:26.106Z,71.44
2018-09-15T22:22:55.833Z,71.43
2018-09-15T22:25:25.645Z,71.10
2018-09-15T22:27:54.453Z,71.82
2018-09-15T22:30:24.386Z,71.63
2018-09-15T22:32:54.945Z,71.22
2018-09-15T22:35:23.754Z,71.43
2018-09-15T22:37:52.341Z,71.96
2018-09-15T22:40:20.919Z,71.86
2018-09-15T22:42:49.558Z,72.36
2018-09-15T22:45:18.279Z,72.37
2018-09-15T22:47:47.074Z,72.44
2018-09-15T22:50:15.798Z,72.39
2018-09-15T22:52:44.437Z,72.84
2018-09-15T22:55:13.186Z,72.55
2018-09-15T22:57:41.899Z,72.52
2018-09-15T23:00:10.742Z,72.75
2018-09-15T23:02:39.394Z,72.53
2018-09-15T23:05:08.299Z,72.52
2018-09-15T23:07:38.417Z,72.38
2018-09-15T23:10:07.099Z,72.26
2018-09-15T23:12:42.451Z,72.47
2018-09-15T23:15:13.117Z,72.12
2018-09-15T23:17:41.837Z,72.62
2018-09-15T23:20:10.827Z,73.25
2018-09-15T23:22:39.402Z,73.27
2018-09-15T23:25:08.396Z,73.47
2018-09-15T23:27:38.095Z,73.25
2018-09-15T23:30:08.571Z,73.16
2018-09-15T23:32:37.265Z,73.32
2018-09-15T23:35:06.601Z,73.66
2018-09-15T23:37:37.028Z,73.83
2018-09-15T23:40:05.670Z,73.65
2018-09-15T23:42:34.716Z,73.50
2018-09-15T23:45:05.052Z,73.61
2018-09-15T23:47:35.147Z,73.45
2018-09-15T23:50:05.554Z,73.19
2018-09-15T23:52:34.587Z,72.84
2018-09-15T23:55:03.390Z,73.19
2018-09-15T23:57:33.176Z,72.74
